EXS23R GCTS-EGGW
Flight info
| Callsign | EXS23R |
|---|---|
| Flight time | 3h 39m |
| Altitude | 36000 |
| Route | KONBA UN866 BEXAL DCT LUVUP DCT CAS DCT VIS DCT BALNO DCT LOTEE/N0462F380 DCT OZNOH DCT ARTIV DCT DIKRO DCT ELDOP DCT LUGIS UM185 TELTU |
| Aircraft | B738/M-SDE2E3FGHIRWXY/LB1 |
Departure
| Time | 2026-05-07 11:10 |
|---|---|
| Airport | Tenerife Sur Airport (GCTS) |
Arrival
| Time | 2026-05-07 14:49 |
|---|---|
| Airport | London Luton Airport (EGGW) |
| Time | Latitude | Longitude | Altitude | Speed | Heading |
|---|---|---|---|---|---|
| 2026-05-07 10:45 | 28.04774 | -16.57505 | 225 ft | 0 kts | 9° |
| 2026-05-07 10:59 | 28.04771 | -16.57505 | 225 ft | 3 kts | 9° |
| 2026-05-07 10:59 | 28.04752 | -16.57508 | 227 ft | 3 kts | 8° |
| 2026-05-07 11:00 | 28.04734 | -16.57510 | 227 ft | 2 kts | 0° |
| 2026-05-07 11:00 | 28.04720 | -16.57509 | 225 ft | 2 kts | 345° |
| 2026-05-07 11:00 | 28.04703 | -16.57503 | 226 ft | 3 kts | 339° |
| 2026-05-07 11:00 | 28.04684 | -16.57494 | 225 ft | 3 kts | 338° |
| 2026-05-07 11:01 | 28.04665 | -16.57486 | 226 ft | 3 kts | 338° |
| 2026-05-07 11:01 | 28.04652 | -16.57480 | 224 ft | 2 kts | 338° |
| 2026-05-07 11:01 | 28.04644 | -16.57476 | 224 ft | 1 kts | 339° |
| 2026-05-07 11:01 | 28.04636 | -16.57473 | 222 ft | 1 kts | 339° |
| 2026-05-07 11:02 | 28.04630 | -16.57470 | 222 ft | 0 kts | 339° |
| 2026-05-07 11:03 | 28.04653 | -16.57480 | 223 ft | 7 kts | 338° |
| 2026-05-07 11:04 | 28.04671 | -16.57526 | 223 ft | 7 kts | 264° |
| 2026-05-07 11:04 | 28.04654 | -16.57585 | 223 ft | 9 kts | 249° |
| 2026-05-07 11:04 | 28.04630 | -16.57653 | 223 ft | 9 kts | 249° |
| 2026-05-07 11:04 | 28.04592 | -16.57702 | 223 ft | 9 kts | 182° |
| 2026-05-07 11:05 | 28.04531 | -16.57682 | 222 ft | 9 kts | 161° |
| 2026-05-07 11:05 | 28.04478 | -16.57695 | 223 ft | 9 kts | 237° |
| 2026-05-07 11:05 | 28.04454 | -16.57757 | 222 ft | 9 kts | 248° |
| 2026-05-07 11:05 | 28.04429 | -16.57828 | 223 ft | 11 kts | 249° |
| 2026-05-07 11:06 | 28.04397 | -16.57919 | 222 ft | 14 kts | 248° |
| 2026-05-07 11:06 | 28.04361 | -16.58022 | 223 ft | 14 kts | 248° |
| 2026-05-07 11:06 | 28.04328 | -16.58117 | 222 ft | 13 kts | 248° |
| 2026-05-07 11:06 | 28.04294 | -16.58214 | 222 ft | 14 kts | 248° |
| 2026-05-07 11:07 | 28.04257 | -16.58320 | 222 ft | 16 kts | 248° |
| 2026-05-07 11:07 | 28.04217 | -16.58434 | 223 ft | 15 kts | 248° |
| 2026-05-07 11:07 | 28.04186 | -16.58546 | 223 ft | 15 kts | 254° |
| 2026-05-07 11:07 | 28.04149 | -16.58656 | 222 ft | 16 kts | 248° |
| 2026-05-07 11:08 | 28.04101 | -16.58792 | 213 ft | 21 kts | 249° |
| 2026-05-07 11:08 | 28.04053 | -16.58932 | 208 ft | 10 kts | 248° |
| 2026-05-07 11:08 | 28.04015 | -16.58994 | 211 ft | 10 kts | 211° |
| 2026-05-07 11:08 | 28.03954 | -16.58974 | 207 ft | 12 kts | 131° |
| 2026-05-07 11:09 | 28.03903 | -16.58870 | 204 ft | 17 kts | 108° |
| 2026-05-07 11:09 | 28.03928 | -16.58739 | 195 ft | 19 kts | 68° |
| 2026-05-07 11:09 | 28.04083 | -16.58295 | 200 ft | 105 kts | 68° |
| 2026-05-07 11:09 | 28.04438 | -16.57249 | 268 ft | 173 kts | 72° |
| 2026-05-07 11:10 | 28.04869 | -16.55909 | 1150 ft | 191 kts | 69° |
| 2026-05-07 11:10 | 28.05363 | -16.54501 | 2210 ft | 190 kts | 67° |
| 2026-05-07 11:10 | 28.05898 | -16.53014 | 2801 ft | 219 kts | 66° |
| 2026-05-07 11:10 | 28.06499 | -16.51326 | 3215 ft | 238 kts | 67° |
| 2026-05-07 11:11 | 28.07123 | -16.49544 | 3685 ft | 252 kts | 67° |
| 2026-05-07 11:11 | 28.07793 | -16.47630 | 4229 ft | 267 kts | 67° |
| 2026-05-07 11:11 | 28.08481 | -16.45653 | 4992 ft | 273 kts | 67° |
| 2026-05-07 11:11 | 28.09160 | -16.43633 | 5731 ft | 276 kts | 68° |
| 2026-05-07 11:12 | 28.09828 | -16.41572 | 6452 ft | 281 kts | 69° |
| 2026-05-07 11:12 | 28.10506 | -16.39468 | 7082 ft | 288 kts | 69° |
| 2026-05-07 11:12 | 28.11195 | -16.37326 | 7813 ft | 291 kts | 68° |
| 2026-05-07 11:12 | 28.11895 | -16.35151 | 8447 ft | 298 kts | 68° |
| 2026-05-07 11:13 | 28.12609 | -16.32937 | 9180 ft | 300 kts | 69° |
| 2026-05-07 11:13 | 28.13328 | -16.30706 | 9881 ft | 305 kts | 69° |
| 2026-05-07 11:13 | 28.13821 | -16.29174 | 10292 ft | 309 kts | 69° |
| 2026-05-07 11:13 | 28.14582 | -16.26817 | 10523 ft | 330 kts | 69° |
| 2026-05-07 11:14 | 28.15393 | -16.24304 | 10717 ft | 350 kts | 69° |
| 2026-05-07 11:14 | 28.16252 | -16.21636 | 10858 ft | 371 kts | 69° |
| 2026-05-07 11:14 | 28.17155 | -16.18829 | 11110 ft | 386 kts | 69° |
| 2026-05-07 11:14 | 28.18084 | -16.15937 | 11550 ft | 394 kts | 69° |
| 2026-05-07 11:15 | 28.19029 | -16.12996 | 12090 ft | 399 kts | 69° |
| 2026-05-07 11:15 | 28.20216 | -16.10157 | 12633 ft | 401 kts | 52° |
| 2026-05-07 11:15 | 28.22247 | -16.08032 | 13222 ft | 399 kts | 28° |
| 2026-05-07 11:15 | 28.24808 | -16.06865 | 13845 ft | 397 kts | 11° |
| 2026-05-07 11:16 | 28.27545 | -16.06557 | 14358 ft | 396 kts | 354° |
| 2026-05-07 11:16 | 28.30303 | -16.06775 | 14937 ft | 398 kts | 352° |
| 2026-05-07 11:16 | 28.33074 | -16.07051 | 15489 ft | 402 kts | 352° |
| 2026-05-07 11:16 | 28.35871 | -16.07340 | 16036 ft | 405 kts | 352° |
| 2026-05-07 11:17 | 28.38694 | -16.07624 | 16590 ft | 409 kts | 352° |
| 2026-05-07 11:17 | 28.41541 | -16.07898 | 17137 ft | 412 kts | 352° |
| 2026-05-07 11:17 | 28.44412 | -16.08164 | 17667 ft | 416 kts | 352° |
| 2026-05-07 11:17 | 28.47309 | -16.08425 | 18201 ft | 419 kts | 352° |
| 2026-05-07 11:18 | 28.50228 | -16.08684 | 18676 ft | 422 kts | 352° |
| 2026-05-07 11:18 | 28.53169 | -16.08943 | 19137 ft | 425 kts | 352° |
| 2026-05-07 11:18 | 28.56124 | -16.09203 | 19604 ft | 428 kts | 352° |
| 2026-05-07 11:18 | 28.59100 | -16.09466 | 20056 ft | 430 kts | 352° |
| 2026-05-07 11:19 | 28.62097 | -16.09730 | 20506 ft | 433 kts | 352° |
| 2026-05-07 11:19 | 28.65115 | -16.09997 | 20936 ft | 437 kts | 352° |
| 2026-05-07 11:19 | 28.68153 | -16.10266 | 21387 ft | 439 kts | 352° |
| 2026-05-07 11:19 | 28.71209 | -16.10537 | 21825 ft | 442 kts | 352° |
| 2026-05-07 11:20 | 28.74283 | -16.10809 | 22246 ft | 444 kts | 352° |
| 2026-05-07 11:20 | 28.77376 | -16.11083 | 22656 ft | 447 kts | 352° |
| 2026-05-07 11:20 | 28.80488 | -16.11359 | 23048 ft | 450 kts | 352° |
| 2026-05-07 11:20 | 28.83618 | -16.11637 | 23435 ft | 453 kts | 352° |
| 2026-05-07 11:21 | 28.86764 | -16.11917 | 23794 ft | 455 kts | 352° |
| 2026-05-07 11:21 | 28.89928 | -16.12198 | 24125 ft | 457 kts | 352° |
| 2026-05-07 11:21 | 28.93109 | -16.12434 | 24464 ft | 460 kts | 356° |
| 2026-05-07 11:21 | 28.96325 | -16.12217 | 24790 ft | 466 kts | 4° |
| 2026-05-07 11:22 | 28.99512 | -16.11417 | 25109 ft | 472 kts | 13° |
| 2026-05-07 11:22 | 29.02668 | -16.10333 | 25437 ft | 475 kts | 14° |
| 2026-05-07 11:22 | 29.05783 | -16.09214 | 25736 ft | 477 kts | 14° |
| 2026-05-07 11:22 | 29.08950 | -16.08071 | 26037 ft | 479 kts | 14° |
| 2026-05-07 11:23 | 29.12140 | -16.06931 | 26331 ft | 481 kts | 14° |
| 2026-05-07 11:23 | 29.15338 | -16.05805 | 26622 ft | 482 kts | 14° |
| 2026-05-07 11:23 | 29.18554 | -16.04685 | 26909 ft | 484 kts | 13° |
| 2026-05-07 11:23 | 29.21784 | -16.03568 | 27177 ft | 486 kts | 13° |
| 2026-05-07 11:24 | 29.25029 | -16.02451 | 27439 ft | 488 kts | 13° |
| 2026-05-07 11:24 | 29.28286 | -16.01329 | 27713 ft | 489 kts | 13° |
| 2026-05-07 11:24 | 29.31546 | -16.00206 | 28068 ft | 489 kts | 13° |
| 2026-05-07 11:24 | 29.34798 | -15.99083 | 28481 ft | 487 kts | 13° |
| 2026-05-07 11:25 | 29.38039 | -15.97963 | 28910 ft | 486 kts | 13° |
| 2026-05-07 11:25 | 29.41269 | -15.96845 | 29327 ft | 484 kts | 13° |
| 2026-05-07 11:25 | 29.44493 | -15.95729 | 29724 ft | 483 kts | 13° |
| 2026-05-07 11:25 | 29.47712 | -15.94614 | 30109 ft | 483 kts | 13° |
| 2026-05-07 11:26 | 29.50923 | -15.93501 | 30458 ft | 482 kts | 13° |
| 2026-05-07 11:26 | 29.54129 | -15.92389 | 30835 ft | 480 kts | 13° |
| 2026-05-07 11:26 | 29.57320 | -15.91281 | 31225 ft | 478 kts | 13° |
| 2026-05-07 11:26 | 29.60498 | -15.90177 | 31576 ft | 477 kts | 13° |
| 2026-05-07 11:27 | 29.63670 | -15.89075 | 31890 ft | 476 kts | 13° |
| 2026-05-07 11:27 | 29.66836 | -15.87974 | 32231 ft | 475 kts | 13° |
| 2026-05-07 11:27 | 29.69990 | -15.86876 | 32599 ft | 472 kts | 13° |
| 2026-05-07 11:27 | 29.73131 | -15.85783 | 32959 ft | 471 kts | 13° |
| 2026-05-07 11:28 | 29.76261 | -15.84692 | 33290 ft | 469 kts | 13° |
| 2026-05-07 11:28 | 29.79382 | -15.83604 | 33638 ft | 468 kts | 13° |
| 2026-05-07 11:28 | 29.82489 | -15.82520 | 33970 ft | 466 kts | 13° |
| 2026-05-07 11:28 | 29.85589 | -15.81438 | 34264 ft | 465 kts | 12° |
| 2026-05-07 11:29 | 29.88685 | -15.80356 | 34496 ft | 465 kts | 12° |
| 2026-05-07 11:29 | 29.91785 | -15.79273 | 34684 ft | 466 kts | 12° |
| 2026-05-07 11:29 | 29.94887 | -15.78188 | 34911 ft | 466 kts | 12° |
| 2026-05-07 11:29 | 29.97986 | -15.77103 | 35138 ft | 465 kts | 12° |
| 2026-05-07 11:30 | 30.01084 | -15.76019 | 35355 ft | 465 kts | 12° |
| 2026-05-07 11:30 | 30.04181 | -15.74934 | 35574 ft | 465 kts | 12° |
| 2026-05-07 11:30 | 30.07278 | -15.73849 | 35767 ft | 465 kts | 12° |
| 2026-05-07 11:30 | 30.10378 | -15.72762 | 35959 ft | 466 kts | 12° |
| 2026-05-07 11:31 | 30.13482 | -15.71673 | 36073 ft | 468 kts | 12° |
| 2026-05-07 11:31 | 30.16606 | -15.70577 | 36067 ft | 470 kts | 12° |
| 2026-05-07 11:31 | 30.22838 | -15.68385 | 36068 ft | 466 kts | 12° |
| 2026-05-07 11:32 | 30.32069 | -15.65131 | 36072 ft | 463 kts | 12° |
| 2026-05-07 11:33 | 30.38217 | -15.62962 | 36077 ft | 461 kts | 12° |
| 2026-05-07 11:33 | 30.44351 | -15.60797 | 36079 ft | 461 kts | 12° |
| 2026-05-07 11:34 | 30.50495 | -15.58624 | 36081 ft | 462 kts | 12° |
| 2026-05-07 11:34 | 30.56659 | -15.56442 | 36075 ft | 464 kts | 12° |
| 2026-05-07 11:35 | 30.62850 | -15.54247 | 36082 ft | 466 kts | 12° |
| 2026-05-07 11:35 | 30.69063 | -15.52041 | 36074 ft | 468 kts | 12° |
| 2026-05-07 11:36 | 30.75305 | -15.49821 | 36081 ft | 470 kts | 12° |
| 2026-05-07 11:36 | 30.81568 | -15.47590 | 36074 ft | 471 kts | 12° |
| 2026-05-07 11:37 | 30.87837 | -15.45354 | 36075 ft | 471 kts | 12° |
| 2026-05-07 11:37 | 30.94108 | -15.43114 | 36070 ft | 471 kts | 12° |
| 2026-05-07 11:38 | 31.00373 | -15.40874 | 36072 ft | 471 kts | 12° |
| 2026-05-07 11:38 | 31.06636 | -15.38631 | 36070 ft | 471 kts | 12° |
| 2026-05-07 11:39 | 31.12894 | -15.36387 | 36075 ft | 470 kts | 12° |
| 2026-05-07 11:39 | 31.19147 | -15.34142 | 36069 ft | 470 kts | 11° |
| 2026-05-07 11:40 | 31.25395 | -15.31895 | 36078 ft | 470 kts | 11° |
| 2026-05-07 11:40 | 31.31491 | -15.29217 | 36062 ft | 478 kts | 24° |
| 2026-05-07 11:41 | 31.37112 | -15.24977 | 36070 ft | 482 kts | 29° |
| 2026-05-07 11:41 | 31.42657 | -15.20552 | 36069 ft | 483 kts | 29° |
| 2026-05-07 11:42 | 31.48225 | -15.16153 | 36073 ft | 483 kts | 29° |
| 2026-05-07 11:42 | 31.53819 | -15.11784 | 36069 ft | 484 kts | 28° |
| 2026-05-07 11:43 | 31.59433 | -15.07412 | 36073 ft | 485 kts | 28° |
| 2026-05-07 11:43 | 31.65059 | -15.03026 | 36070 ft | 486 kts | 28° |
| 2026-05-07 11:44 | 31.70695 | -14.98623 | 36071 ft | 487 kts | 29° |
| 2026-05-07 11:44 | 31.76339 | -14.94205 | 36064 ft | 488 kts | 28° |
| 2026-05-07 11:45 | 31.82004 | -14.89764 | 36062 ft | 492 kts | 27° |
| 2026-05-07 11:45 | 31.87734 | -14.85269 | 36067 ft | 497 kts | 28° |
| 2026-05-07 11:46 | 31.93488 | -14.80743 | 36057 ft | 496 kts | 28° |
| 2026-05-07 11:46 | 31.99190 | -14.76246 | 36063 ft | 492 kts | 28° |
| 2026-05-07 11:47 | 32.04866 | -14.71768 | 36063 ft | 490 kts | 28° |
| 2026-05-07 11:47 | 32.10529 | -14.67296 | 36064 ft | 490 kts | 28° |
| 2026-05-07 11:48 | 32.16185 | -14.62824 | 36067 ft | 490 kts | 28° |
| 2026-05-07 11:48 | 32.21850 | -14.58336 | 36067 ft | 491 kts | 28° |
| 2026-05-07 11:49 | 32.27530 | -14.53829 | 36059 ft | 493 kts | 28° |
| 2026-05-07 11:49 | 32.33229 | -14.49301 | 36069 ft | 494 kts | 28° |
| 2026-05-07 11:50 | 32.38945 | -14.44751 | 36066 ft | 496 kts | 28° |
| 2026-05-07 11:50 | 32.44678 | -14.40180 | 36064 ft | 498 kts | 28° |
| 2026-05-07 11:51 | 32.50422 | -14.35593 | 36065 ft | 499 kts | 28° |
| 2026-05-07 11:51 | 32.56178 | -14.30989 | 36058 ft | 499 kts | 28° |
| 2026-05-07 11:52 | 32.61940 | -14.26374 | 36055 ft | 500 kts | 28° |
| 2026-05-07 11:52 | 32.67700 | -14.21752 | 36053 ft | 500 kts | 28° |
| 2026-05-07 11:53 | 32.73454 | -14.17128 | 36052 ft | 499 kts | 28° |
| 2026-05-07 11:53 | 32.79196 | -14.12506 | 36048 ft | 498 kts | 28° |
| 2026-05-07 11:54 | 32.84932 | -14.07882 | 36051 ft | 498 kts | 28° |
| 2026-05-07 11:54 | 32.90660 | -14.03258 | 36048 ft | 497 kts | 28° |
| 2026-05-07 11:55 | 32.96379 | -13.98632 | 36052 ft | 497 kts | 28° |
| 2026-05-07 11:55 | 33.02051 | -13.94038 | 36054 ft | 496 kts | 28° |
| 2026-05-07 11:56 | 33.07802 | -13.89371 | 36049 ft | 496 kts | 29° |
| 2026-05-07 11:56 | 33.13469 | -13.84767 | 36042 ft | 496 kts | 29° |
| 2026-05-07 11:57 | 33.19175 | -13.80115 | 36047 ft | 497 kts | 29° |
| 2026-05-07 11:57 | 33.24874 | -13.75444 | 36045 ft | 497 kts | 29° |
| 2026-05-07 11:58 | 33.30580 | -13.70758 | 36055 ft | 498 kts | 29° |
| 2026-05-07 11:58 | 33.35365 | -13.66824 | 36043 ft | 499 kts | 29° |
| 2026-05-07 11:59 | 33.41083 | -13.62116 | 36045 ft | 499 kts | 29° |
| 2026-05-07 11:59 | 33.46808 | -13.57396 | 36044 ft | 500 kts | 29° |
| 2026-05-07 12:00 | 33.52539 | -13.52663 | 36042 ft | 501 kts | 29° |
| 2026-05-07 12:00 | 33.58276 | -13.47916 | 36045 ft | 501 kts | 29° |
| 2026-05-07 12:01 | 33.63980 | -13.43190 | 36044 ft | 502 kts | 30° |
| 2026-05-07 12:01 | 33.69722 | -13.38424 | 36044 ft | 502 kts | 30° |
| 2026-05-07 12:02 | 33.75471 | -13.33644 | 36037 ft | 503 kts | 29° |
| 2026-05-07 12:02 | 33.81221 | -13.28856 | 36038 ft | 503 kts | 29° |
| 2026-05-07 12:03 | 33.86973 | -13.24058 | 36046 ft | 503 kts | 29° |
| 2026-05-07 12:03 | 33.92721 | -13.19255 | 36042 ft | 503 kts | 29° |
| 2026-05-07 12:04 | 33.98460 | -13.14451 | 36036 ft | 502 kts | 29° |
| 2026-05-07 12:04 | 34.04197 | -13.09641 | 36035 ft | 502 kts | 29° |
| 2026-05-07 12:05 | 34.09927 | -13.04829 | 36037 ft | 502 kts | 29° |
| 2026-05-07 12:05 | 34.15652 | -13.00013 | 36036 ft | 501 kts | 29° |
| 2026-05-07 12:06 | 34.21369 | -12.95195 | 36031 ft | 501 kts | 29° |
| 2026-05-07 12:06 | 34.27086 | -12.90372 | 36031 ft | 501 kts | 29° |
| 2026-05-07 12:07 | 34.32814 | -12.85570 | 36029 ft | 501 kts | 29° |
| 2026-05-07 12:07 | 34.38545 | -12.80775 | 36029 ft | 501 kts | 29° |
| 2026-05-07 12:08 | 34.44273 | -12.75969 | 36028 ft | 501 kts | 29° |
| 2026-05-07 12:08 | 34.49995 | -12.71156 | 36026 ft | 501 kts | 29° |
| 2026-05-07 12:09 | 34.55719 | -12.66331 | 36027 ft | 501 kts | 29° |
| 2026-05-07 12:09 | 34.61440 | -12.61500 | 36026 ft | 501 kts | 29° |
| 2026-05-07 12:10 | 34.67160 | -12.56663 | 36022 ft | 501 kts | 29° |
| 2026-05-07 12:10 | 34.72873 | -12.51822 | 36023 ft | 501 kts | 29° |
| 2026-05-07 12:11 | 34.78587 | -12.46972 | 36023 ft | 501 kts | 29° |
| 2026-05-07 12:11 | 34.84300 | -12.42116 | 36022 ft | 501 kts | 29° |
| 2026-05-07 12:12 | 34.90011 | -12.37252 | 36020 ft | 501 kts | 30° |
| 2026-05-07 12:12 | 34.95683 | -12.32413 | 36022 ft | 501 kts | 30° |
| 2026-05-07 12:13 | 35.01393 | -12.27534 | 36020 ft | 501 kts | 30° |
| 2026-05-07 12:13 | 35.07099 | -12.22650 | 36018 ft | 501 kts | 30° |
| 2026-05-07 12:14 | 35.12807 | -12.17755 | 36014 ft | 501 kts | 30° |
| 2026-05-07 12:14 | 35.18516 | -12.12851 | 36015 ft | 502 kts | 30° |
| 2026-05-07 12:15 | 35.24224 | -12.07939 | 36017 ft | 502 kts | 30° |
| 2026-05-07 12:15 | 35.29930 | -12.03019 | 36021 ft | 502 kts | 30° |
| 2026-05-07 12:16 | 35.35633 | -11.98094 | 36010 ft | 502 kts | 30° |
| 2026-05-07 12:16 | 35.41339 | -11.93159 | 36017 ft | 502 kts | 30° |
| 2026-05-07 12:17 | 35.47043 | -11.88215 | 36012 ft | 502 kts | 30° |
| 2026-05-07 12:17 | 35.52745 | -11.83265 | 36012 ft | 502 kts | 30° |
| 2026-05-07 12:18 | 35.58441 | -11.78310 | 36011 ft | 502 kts | 30° |
| 2026-05-07 12:18 | 35.64137 | -11.73348 | 36012 ft | 502 kts | 30° |
| 2026-05-07 12:19 | 35.69830 | -11.68379 | 36010 ft | 502 kts | 30° |
| 2026-05-07 12:19 | 35.75519 | -11.63404 | 36005 ft | 502 kts | 30° |
| 2026-05-07 12:20 | 35.81204 | -11.58423 | 36003 ft | 501 kts | 30° |
| 2026-05-07 12:20 | 35.86883 | -11.53439 | 36000 ft | 501 kts | 30° |
| 2026-05-07 12:21 | 35.92565 | -11.48443 | 36001 ft | 501 kts | 30° |
| 2026-05-07 12:21 | 35.98283 | -11.43546 | 35996 ft | 498 kts | 26° |
| 2026-05-07 12:22 | 36.04243 | -11.39240 | 36011 ft | 495 kts | 23° |
| 2026-05-07 12:22 | 36.10259 | -11.35078 | 36003 ft | 496 kts | 23° |
| 2026-05-07 12:23 | 36.16261 | -11.30866 | 36002 ft | 497 kts | 23° |
| 2026-05-07 12:23 | 36.22213 | -11.26624 | 36000 ft | 497 kts | 24° |
| 2026-05-07 12:24 | 36.28202 | -11.22328 | 36001 ft | 498 kts | 24° |
| 2026-05-07 12:24 | 36.34193 | -11.18023 | 36000 ft | 498 kts | 24° |
| 2026-05-07 12:25 | 36.40185 | -11.13713 | 35984 ft | 498 kts | 24° |
| 2026-05-07 12:25 | 36.46172 | -11.09399 | 35997 ft | 498 kts | 24° |
| 2026-05-07 12:26 | 36.52160 | -11.05079 | 35995 ft | 497 kts | 24° |
| 2026-05-07 12:26 | 36.58143 | -11.00753 | 35997 ft | 497 kts | 24° |
| 2026-05-07 12:27 | 36.64122 | -10.96423 | 35993 ft | 497 kts | 24° |
| 2026-05-07 12:27 | 36.70094 | -10.92089 | 35988 ft | 497 kts | 24° |
| 2026-05-07 12:28 | 36.76057 | -10.87755 | 35987 ft | 496 kts | 24° |
| 2026-05-07 12:28 | 36.82015 | -10.83416 | 35985 ft | 496 kts | 24° |
| 2026-05-07 12:29 | 36.87965 | -10.79075 | 35985 ft | 495 kts | 24° |
| 2026-05-07 12:29 | 36.93908 | -10.74732 | 35985 ft | 495 kts | 24° |
| 2026-05-07 12:30 | 36.99843 | -10.70386 | 35989 ft | 494 kts | 24° |
| 2026-05-07 12:30 | 37.05768 | -10.66040 | 35982 ft | 494 kts | 24° |
| 2026-05-07 12:31 | 37.11688 | -10.61688 | 35978 ft | 493 kts | 24° |
| 2026-05-07 12:31 | 37.17602 | -10.57334 | 35977 ft | 493 kts | 24° |
| 2026-05-07 12:32 | 37.23510 | -10.52977 | 35974 ft | 492 kts | 24° |
| 2026-05-07 12:32 | 37.29409 | -10.48618 | 35976 ft | 492 kts | 24° |
| 2026-05-07 12:33 | 37.38244 | -10.42074 | 35977 ft | 491 kts | 24° |
| 2026-05-07 12:33 | 37.44131 | -10.37704 | 35976 ft | 491 kts | 24° |
| 2026-05-07 12:34 | 37.50012 | -10.33330 | 35975 ft | 491 kts | 24° |
| 2026-05-07 12:34 | 37.55846 | -10.28982 | 35971 ft | 490 kts | 24° |
| 2026-05-07 12:35 | 37.61720 | -10.24597 | 35970 ft | 490 kts | 24° |
| 2026-05-07 12:35 | 37.67581 | -10.20212 | 35969 ft | 490 kts | 24° |
| 2026-05-07 12:36 | 37.73439 | -10.15816 | 35965 ft | 490 kts | 24° |
| 2026-05-07 12:36 | 37.79261 | -10.11332 | 35965 ft | 490 kts | 25° |
| 2026-05-07 12:37 | 37.85061 | -10.06816 | 35963 ft | 490 kts | 25° |
| 2026-05-07 12:37 | 37.90864 | -10.02299 | 35961 ft | 489 kts | 25° |
| 2026-05-07 12:38 | 37.96659 | -9.97791 | 35958 ft | 489 kts | 25° |
| 2026-05-07 12:38 | 38.02449 | -9.93283 | 35958 ft | 488 kts | 25° |
| 2026-05-07 12:39 | 38.08232 | -9.88771 | 35958 ft | 488 kts | 25° |
| 2026-05-07 12:39 | 38.14008 | -9.84255 | 35960 ft | 487 kts | 25° |
| 2026-05-07 12:40 | 38.19773 | -9.79740 | 35953 ft | 487 kts | 25° |
| 2026-05-07 12:40 | 38.25533 | -9.75219 | 35948 ft | 486 kts | 25° |
| 2026-05-07 12:41 | 38.31286 | -9.70696 | 35957 ft | 485 kts | 25° |
| 2026-05-07 12:41 | 38.37028 | -9.66173 | 35952 ft | 485 kts | 25° |
| 2026-05-07 12:42 | 38.42763 | -9.61647 | 35947 ft | 484 kts | 25° |
| 2026-05-07 12:42 | 38.48487 | -9.57121 | 35947 ft | 484 kts | 25° |
| 2026-05-07 12:43 | 38.54206 | -9.52590 | 35943 ft | 483 kts | 25° |
| 2026-05-07 12:43 | 38.58990 | -9.48793 | 35940 ft | 483 kts | 25° |
| 2026-05-07 12:44 | 38.64656 | -9.44289 | 35943 ft | 482 kts | 25° |
| 2026-05-07 12:44 | 38.70352 | -9.39751 | 35941 ft | 482 kts | 25° |
| 2026-05-07 12:45 | 38.76040 | -9.35226 | 35941 ft | 481 kts | 24° |
| 2026-05-07 12:45 | 38.81819 | -9.30976 | 35971 ft | 478 kts | 22° |
| 2026-05-07 12:46 | 38.87632 | -9.26846 | 35974 ft | 477 kts | 22° |
| 2026-05-07 12:46 | 38.93430 | -9.22688 | 35955 ft | 477 kts | 22° |
| 2026-05-07 12:47 | 38.99205 | -9.18497 | 35944 ft | 476 kts | 23° |
| 2026-05-07 12:47 | 39.04973 | -9.14288 | 35932 ft | 477 kts | 23° |
| 2026-05-07 12:48 | 39.10737 | -9.10072 | 35930 ft | 476 kts | 23° |
| 2026-05-07 12:48 | 39.16487 | -9.05860 | 35928 ft | 475 kts | 23° |
| 2026-05-07 12:49 | 39.22228 | -9.01647 | 35921 ft | 475 kts | 23° |
| 2026-05-07 12:49 | 39.27963 | -8.97433 | 35915 ft | 474 kts | 23° |
| 2026-05-07 12:50 | 39.33690 | -8.93215 | 35913 ft | 474 kts | 23° |
| 2026-05-07 12:50 | 39.39405 | -8.88998 | 35914 ft | 473 kts | 23° |
| 2026-05-07 12:51 | 39.45119 | -8.84775 | 35910 ft | 473 kts | 23° |
| 2026-05-07 12:51 | 39.50824 | -8.80550 | 35917 ft | 472 kts | 23° |
| 2026-05-07 12:52 | 39.56520 | -8.76322 | 35917 ft | 471 kts | 23° |
| 2026-05-07 12:52 | 39.62209 | -8.72093 | 35918 ft | 471 kts | 23° |
| 2026-05-07 12:53 | 39.67887 | -8.67863 | 35922 ft | 470 kts | 23° |
| 2026-05-07 12:53 | 39.73562 | -8.63628 | 35923 ft | 470 kts | 23° |
| 2026-05-07 12:54 | 39.79229 | -8.59390 | 35919 ft | 470 kts | 23° |
| 2026-05-07 12:54 | 39.84891 | -8.55149 | 35916 ft | 469 kts | 23° |
| 2026-05-07 12:55 | 39.90544 | -8.50905 | 35911 ft | 469 kts | 23° |
| 2026-05-07 12:55 | 39.96196 | -8.46655 | 35903 ft | 469 kts | 23° |
| 2026-05-07 12:56 | 40.01839 | -8.42402 | 35899 ft | 469 kts | 23° |
| 2026-05-07 12:56 | 40.07487 | -8.38139 | 35891 ft | 469 kts | 23° |
| 2026-05-07 12:57 | 40.13129 | -8.33870 | 35897 ft | 468 kts | 23° |
| 2026-05-07 12:57 | 40.18762 | -8.29600 | 35894 ft | 468 kts | 23° |
| 2026-05-07 12:58 | 40.24386 | -8.25329 | 35888 ft | 467 kts | 23° |
| 2026-05-07 12:58 | 40.30001 | -8.21057 | 35877 ft | 467 kts | 23° |
| 2026-05-07 12:59 | 40.35614 | -8.16779 | 35884 ft | 467 kts | 23° |
| 2026-05-07 12:59 | 40.41233 | -8.12488 | 35878 ft | 468 kts | 23° |
| 2026-05-07 13:00 | 40.46861 | -8.08180 | 35880 ft | 468 kts | 23° |
| 2026-05-07 13:00 | 40.52492 | -8.03862 | 35879 ft | 469 kts | 23° |
| 2026-05-07 13:01 | 40.58121 | -7.99537 | 35877 ft | 469 kts | 23° |
| 2026-05-07 13:01 | 40.63752 | -7.95200 | 35887 ft | 468 kts | 24° |
| 2026-05-07 13:02 | 40.69373 | -7.90863 | 35873 ft | 468 kts | 24° |
| 2026-05-07 13:02 | 40.74951 | -7.86412 | 35870 ft | 470 kts | 26° |
| 2026-05-07 13:03 | 40.80391 | -7.81604 | 35873 ft | 471 kts | 27° |
| 2026-05-07 13:03 | 40.85801 | -7.76734 | 35876 ft | 470 kts | 27° |
| 2026-05-07 13:04 | 40.91219 | -7.71897 | 35872 ft | 470 kts | 27° |
| 2026-05-07 13:04 | 40.96647 | -7.67076 | 35870 ft | 470 kts | 27° |
| 2026-05-07 13:05 | 41.02068 | -7.62260 | 35868 ft | 469 kts | 28° |
| 2026-05-07 13:05 | 41.07478 | -7.57443 | 35873 ft | 468 kts | 28° |
| 2026-05-07 13:06 | 41.12883 | -7.52619 | 35868 ft | 468 kts | 28° |
| 2026-05-07 13:06 | 41.18279 | -7.47794 | 35876 ft | 468 kts | 28° |
| 2026-05-07 13:07 | 41.23673 | -7.42961 | 35865 ft | 467 kts | 28° |
| 2026-05-07 13:07 | 41.29058 | -7.38125 | 35869 ft | 466 kts | 28° |
| 2026-05-07 13:08 | 41.34423 | -7.33297 | 35867 ft | 465 kts | 29° |
| 2026-05-07 13:08 | 41.39784 | -7.28464 | 35863 ft | 464 kts | 29° |
| 2026-05-07 13:09 | 41.45124 | -7.23639 | 35862 ft | 464 kts | 29° |
| 2026-05-07 13:09 | 41.50459 | -7.18810 | 35863 ft | 463 kts | 29° |
| 2026-05-07 13:10 | 41.55752 | -7.14009 | 35874 ft | 463 kts | 30° |
| 2026-05-07 13:10 | 41.61078 | -7.09167 | 35864 ft | 464 kts | 30° |
| 2026-05-07 13:11 | 41.66410 | -7.04310 | 35872 ft | 464 kts | 30° |
| 2026-05-07 13:11 | 41.71769 | -6.99504 | 35855 ft | 462 kts | 25° |
| 2026-05-07 13:12 | 41.77636 | -6.96320 | 35875 ft | 452 kts | 11° |
| 2026-05-07 13:12 | 41.83719 | -6.94122 | 35863 ft | 453 kts | 11° |
| 2026-05-07 13:13 | 41.89810 | -6.91932 | 35870 ft | 454 kts | 11° |
| 2026-05-07 13:13 | 41.95905 | -6.89683 | 35884 ft | 455 kts | 11° |
| 2026-05-07 13:14 | 42.02007 | -6.87398 | 35865 ft | 455 kts | 12° |
| 2026-05-07 13:14 | 42.08113 | -6.85100 | 35868 ft | 456 kts | 12° |
| 2026-05-07 13:15 | 42.14219 | -6.82797 | 35863 ft | 455 kts | 12° |
| 2026-05-07 13:15 | 42.20317 | -6.80493 | 35861 ft | 455 kts | 12° |
| 2026-05-07 13:16 | 42.26406 | -6.78189 | 35859 ft | 454 kts | 12° |
| 2026-05-07 13:16 | 42.32493 | -6.75882 | 35863 ft | 454 kts | 12° |
| 2026-05-07 13:17 | 42.38579 | -6.73570 | 35870 ft | 454 kts | 12° |
| 2026-05-07 13:17 | 42.44655 | -6.71258 | 35857 ft | 453 kts | 12° |
| 2026-05-07 13:18 | 42.50726 | -6.68943 | 35868 ft | 454 kts | 12° |
| 2026-05-07 13:18 | 42.56813 | -6.66617 | 35860 ft | 455 kts | 12° |
| 2026-05-07 13:19 | 42.62908 | -6.64283 | 35865 ft | 455 kts | 12° |
| 2026-05-07 13:19 | 42.69011 | -6.61941 | 35861 ft | 456 kts | 13° |
| 2026-05-07 13:20 | 42.75117 | -6.59593 | 35865 ft | 456 kts | 13° |
| 2026-05-07 13:20 | 42.81227 | -6.57239 | 35866 ft | 456 kts | 13° |
| 2026-05-07 13:21 | 42.87333 | -6.54882 | 35861 ft | 456 kts | 13° |
| 2026-05-07 13:21 | 42.93441 | -6.52519 | 35865 ft | 456 kts | 13° |
| 2026-05-07 13:22 | 42.99548 | -6.50151 | 35871 ft | 456 kts | 13° |
| 2026-05-07 13:22 | 43.05652 | -6.47780 | 35871 ft | 456 kts | 13° |
| 2026-05-07 13:23 | 43.11750 | -6.45406 | 35874 ft | 456 kts | 13° |
| 2026-05-07 13:23 | 43.17852 | -6.43026 | 35875 ft | 456 kts | 13° |
| 2026-05-07 13:24 | 43.23954 | -6.40641 | 35882 ft | 456 kts | 13° |
| 2026-05-07 13:24 | 43.30055 | -6.38251 | 35879 ft | 456 kts | 13° |
| 2026-05-07 13:25 | 43.35121 | -6.36263 | 35888 ft | 455 kts | 13° |
| 2026-05-07 13:25 | 43.41218 | -6.33865 | 35892 ft | 456 kts | 13° |
| 2026-05-07 13:26 | 43.47324 | -6.31460 | 35889 ft | 457 kts | 13° |
| 2026-05-07 13:26 | 43.53442 | -6.29044 | 35886 ft | 458 kts | 13° |
| 2026-05-07 13:27 | 43.59569 | -6.26620 | 35893 ft | 459 kts | 13° |
| 2026-05-07 13:27 | 43.65707 | -6.24185 | 35891 ft | 459 kts | 13° |
| 2026-05-07 13:28 | 43.71854 | -6.21743 | 35892 ft | 460 kts | 13° |
| 2026-05-07 13:28 | 43.78009 | -6.19291 | 35896 ft | 461 kts | 13° |
| 2026-05-07 13:29 | 43.84172 | -6.16832 | 35901 ft | 461 kts | 14° |
| 2026-05-07 13:29 | 43.90338 | -6.14365 | 35908 ft | 462 kts | 13° |
| 2026-05-07 13:30 | 43.96513 | -6.11890 | 35913 ft | 462 kts | 13° |
| 2026-05-07 13:30 | 44.02693 | -6.09408 | 35916 ft | 462 kts | 13° |
| 2026-05-07 13:31 | 44.08878 | -6.06918 | 35910 ft | 463 kts | 14° |
| 2026-05-07 13:31 | 44.15068 | -6.04420 | 35917 ft | 463 kts | 13° |
| 2026-05-07 13:32 | 44.21223 | -6.01932 | 35923 ft | 464 kts | 14° |
| 2026-05-07 13:32 | 44.27464 | -5.99403 | 35930 ft | 464 kts | 14° |
| 2026-05-07 13:33 | 44.33632 | -5.96898 | 35928 ft | 465 kts | 14° |
| 2026-05-07 13:33 | 44.39848 | -5.94368 | 35929 ft | 465 kts | 14° |
| 2026-05-07 13:34 | 44.49181 | -5.90558 | 35935 ft | 466 kts | 14° |
| 2026-05-07 13:35 | 44.55404 | -5.88010 | 36106 ft | 464 kts | 14° |
| 2026-05-07 13:35 | 44.58495 | -5.86743 | 36333 ft | 463 kts | 14° |
| 2026-05-07 13:35 | 44.61589 | -5.85473 | 36560 ft | 463 kts | 14° |
| 2026-05-07 13:35 | 44.64679 | -5.84180 | 36786 ft | 464 kts | 17° |
| 2026-05-07 13:36 | 44.67668 | -5.82456 | 37005 ft | 466 kts | 26° |
| 2026-05-07 13:36 | 44.70500 | -5.80256 | 37256 ft | 465 kts | 28° |
| 2026-05-07 13:36 | 44.73295 | -5.77972 | 37494 ft | 464 kts | 28° |
| 2026-05-07 13:36 | 44.76075 | -5.75664 | 37733 ft | 463 kts | 28° |
| 2026-05-07 13:37 | 44.78845 | -5.73366 | 37947 ft | 462 kts | 28° |
| 2026-05-07 13:37 | 44.84441 | -5.68769 | 37964 ft | 469 kts | 28° |
| 2026-05-07 13:38 | 44.90142 | -5.64133 | 37966 ft | 476 kts | 28° |
| 2026-05-07 13:38 | 44.95901 | -5.59458 | 37961 ft | 479 kts | 28° |
| 2026-05-07 13:39 | 45.01683 | -5.54754 | 37957 ft | 480 kts | 28° |
| 2026-05-07 13:39 | 45.07460 | -5.50040 | 37947 ft | 477 kts | 28° |
| 2026-05-07 13:40 | 45.13172 | -5.45368 | 37954 ft | 472 kts | 28° |
| 2026-05-07 13:40 | 45.18870 | -5.40697 | 37976 ft | 475 kts | 28° |
| 2026-05-07 13:41 | 45.24609 | -5.35983 | 37973 ft | 478 kts | 28° |
| 2026-05-07 13:41 | 45.30377 | -5.31233 | 37977 ft | 481 kts | 28° |
| 2026-05-07 13:42 | 45.36166 | -5.26452 | 37974 ft | 482 kts | 28° |
| 2026-05-07 13:42 | 45.41961 | -5.21656 | 37968 ft | 482 kts | 28° |
| 2026-05-07 13:43 | 45.47750 | -5.16854 | 37972 ft | 481 kts | 29° |
| 2026-05-07 13:43 | 45.53528 | -5.12048 | 37977 ft | 480 kts | 29° |
| 2026-05-07 13:44 | 45.59257 | -5.07273 | 37978 ft | 480 kts | 29° |
| 2026-05-07 13:44 | 45.65011 | -5.02465 | 37979 ft | 479 kts | 29° |
| 2026-05-07 13:45 | 45.70759 | -4.97651 | 37982 ft | 478 kts | 29° |
| 2026-05-07 13:45 | 45.76500 | -4.92831 | 37982 ft | 478 kts | 29° |
| 2026-05-07 13:46 | 45.82232 | -4.88007 | 37988 ft | 478 kts | 29° |
| 2026-05-07 13:46 | 45.87967 | -4.83168 | 37990 ft | 479 kts | 29° |
| 2026-05-07 13:47 | 45.93712 | -4.78310 | 37990 ft | 479 kts | 29° |
| 2026-05-07 13:47 | 45.99451 | -4.73444 | 37988 ft | 479 kts | 29° |
| 2026-05-07 13:48 | 46.05184 | -4.68572 | 37991 ft | 479 kts | 30° |
| 2026-05-07 13:48 | 46.10919 | -4.63687 | 37995 ft | 479 kts | 30° |
| 2026-05-07 13:49 | 46.16657 | -4.58787 | 37993 ft | 479 kts | 30° |
| 2026-05-07 13:49 | 46.22393 | -4.53876 | 37996 ft | 480 kts | 30° |
| 2026-05-07 13:50 | 46.28128 | -4.48955 | 37996 ft | 479 kts | 30° |
| 2026-05-07 13:50 | 46.33856 | -4.44027 | 37990 ft | 479 kts | 30° |
| 2026-05-07 13:51 | 46.39576 | -4.39094 | 37995 ft | 478 kts | 30° |
| 2026-05-07 13:51 | 46.45295 | -4.34149 | 37998 ft | 478 kts | 30° |
| 2026-05-07 13:52 | 46.51006 | -4.29199 | 38003 ft | 478 kts | 30° |
| 2026-05-07 13:52 | 46.56719 | -4.24236 | 38003 ft | 478 kts | 30° |
| 2026-05-07 13:53 | 46.62430 | -4.19261 | 38004 ft | 479 kts | 30° |
| 2026-05-07 13:53 | 46.68140 | -4.14275 | 38001 ft | 479 kts | 30° |
| 2026-05-07 13:54 | 46.73856 | -4.09272 | 38004 ft | 479 kts | 30° |
| 2026-05-07 13:54 | 46.79572 | -4.04255 | 38005 ft | 480 kts | 30° |
| 2026-05-07 13:55 | 46.85292 | -3.99224 | 38004 ft | 480 kts | 30° |
| 2026-05-07 13:55 | 46.91014 | -3.94177 | 38004 ft | 480 kts | 30° |
| 2026-05-07 13:56 | 46.96737 | -3.89116 | 38009 ft | 481 kts | 30° |
| 2026-05-07 13:56 | 47.02462 | -3.84041 | 38006 ft | 481 kts | 30° |
| 2026-05-07 13:57 | 47.08184 | -3.78956 | 38007 ft | 481 kts | 30° |
| 2026-05-07 13:57 | 47.13908 | -3.73856 | 38010 ft | 481 kts | 30° |
| 2026-05-07 13:58 | 47.19631 | -3.68745 | 38010 ft | 481 kts | 31° |
| 2026-05-07 13:58 | 47.25352 | -3.63621 | 38007 ft | 481 kts | 31° |
| 2026-05-07 13:59 | 47.31070 | -3.58488 | 38009 ft | 481 kts | 31° |
| 2026-05-07 13:59 | 47.36782 | -3.53346 | 38008 ft | 481 kts | 31° |
| 2026-05-07 14:00 | 47.42495 | -3.48191 | 38012 ft | 481 kts | 31° |
| 2026-05-07 14:00 | 47.48204 | -3.43025 | 38014 ft | 481 kts | 31° |
| 2026-05-07 14:01 | 47.53911 | -3.37848 | 38015 ft | 481 kts | 31° |
| 2026-05-07 14:01 | 47.59611 | -3.32664 | 38018 ft | 481 kts | 31° |
| 2026-05-07 14:02 | 47.65314 | -3.27465 | 38021 ft | 481 kts | 31° |
| 2026-05-07 14:02 | 47.71016 | -3.22251 | 38013 ft | 482 kts | 31° |
| 2026-05-07 14:03 | 47.76721 | -3.17023 | 38022 ft | 482 kts | 31° |
| 2026-05-07 14:03 | 47.82426 | -3.11780 | 38019 ft | 482 kts | 31° |
| 2026-05-07 14:04 | 47.88128 | -3.06526 | 38003 ft | 482 kts | 31° |
| 2026-05-07 14:04 | 47.93832 | -3.01256 | 37993 ft | 482 kts | 31° |
| 2026-05-07 14:05 | 47.99532 | -2.95977 | 37992 ft | 482 kts | 31° |
| 2026-05-07 14:05 | 48.05225 | -2.90690 | 38000 ft | 482 kts | 31° |
| 2026-05-07 14:06 | 48.10920 | -2.85388 | 37992 ft | 482 kts | 31° |
| 2026-05-07 14:06 | 48.16610 | -2.80076 | 37988 ft | 482 kts | 31° |
| 2026-05-07 14:07 | 48.22286 | -2.74762 | 37997 ft | 481 kts | 31° |
| 2026-05-07 14:07 | 48.27952 | -2.69444 | 38002 ft | 480 kts | 31° |
| 2026-05-07 14:08 | 48.33604 | -2.64124 | 38004 ft | 479 kts | 31° |
| 2026-05-07 14:08 | 48.38292 | -2.59701 | 38011 ft | 478 kts | 31° |
| 2026-05-07 14:09 | 48.43923 | -2.54374 | 38011 ft | 478 kts | 32° |
| 2026-05-07 14:09 | 48.48980 | -2.47935 | 38028 ft | 477 kts | 46° |
| 2026-05-07 14:10 | 48.53492 | -2.40599 | 38002 ft | 477 kts | 47° |
| 2026-05-07 14:10 | 48.57988 | -2.33242 | 38001 ft | 477 kts | 47° |
| 2026-05-07 14:11 | 48.62525 | -2.25921 | 37997 ft | 477 kts | 47° |
| 2026-05-07 14:11 | 48.67075 | -2.18607 | 37998 ft | 477 kts | 47° |
| 2026-05-07 14:12 | 48.71625 | -2.11274 | 37993 ft | 478 kts | 47° |
| 2026-05-07 14:12 | 48.76165 | -2.03929 | 38003 ft | 478 kts | 47° |
| 2026-05-07 14:13 | 48.80705 | -1.96563 | 38006 ft | 478 kts | 47° |
| 2026-05-07 14:13 | 48.85243 | -1.89183 | 38016 ft | 478 kts | 46° |
| 2026-05-07 14:14 | 48.90338 | -1.82751 | 38037 ft | 477 kts | 34° |
| 2026-05-07 14:14 | 48.95854 | -1.77138 | 38024 ft | 477 kts | 33° |
| 2026-05-07 14:15 | 49.01372 | -1.71525 | 38007 ft | 477 kts | 33° |
| 2026-05-07 14:15 | 49.06861 | -1.65833 | 38016 ft | 477 kts | 34° |
| 2026-05-07 14:16 | 49.12334 | -1.60099 | 38034 ft | 477 kts | 34° |
| 2026-05-07 14:16 | 49.17805 | -1.54347 | 38017 ft | 477 kts | 34° |
| 2026-05-07 14:17 | 49.23273 | -1.48586 | 38033 ft | 477 kts | 34° |
| 2026-05-07 14:17 | 49.28737 | -1.42815 | 38023 ft | 477 kts | 34° |
| 2026-05-07 14:18 | 49.34199 | -1.37031 | 38018 ft | 477 kts | 34° |
| 2026-05-07 14:18 | 49.39661 | -1.31232 | 38043 ft | 477 kts | 34° |
| 2026-05-07 14:19 | 49.45112 | -1.25428 | 38037 ft | 477 kts | 34° |
| 2026-05-07 14:19 | 49.50558 | -1.19612 | 38049 ft | 476 kts | 34° |
| 2026-05-07 14:20 | 49.55995 | -1.13791 | 38053 ft | 476 kts | 34° |
| 2026-05-07 14:20 | 49.61376 | -1.07863 | 38055 ft | 476 kts | 37° |
| 2026-05-07 14:21 | 49.66585 | -1.01570 | 38059 ft | 475 kts | 38° |
| 2026-05-07 14:21 | 49.71815 | -0.95330 | 38049 ft | 475 kts | 35° |
| 2026-05-07 14:21 | 49.74645 | -0.92711 | 38044 ft | 474 kts | 24° |
| 2026-05-07 14:22 | 49.77702 | -0.90853 | 38054 ft | 472 kts | 15° |
| 2026-05-07 14:22 | 49.84149 | -0.89261 | 38072 ft | 469 kts | 3° |
| 2026-05-07 14:23 | 49.90674 | -0.88506 | 38063 ft | 470 kts | 3° |
| 2026-05-07 14:23 | 49.97196 | -0.87618 | 38054 ft | 471 kts | 4° |
| 2026-05-07 14:24 | 50.03740 | -0.86667 | 37725 ft | 477 kts | 4° |
| 2026-05-07 14:24 | 50.07047 | -0.86199 | 37159 ft | 476 kts | 4° |
| 2026-05-07 14:24 | 50.10331 | -0.85735 | 36541 ft | 473 kts | 3° |
| 2026-05-07 14:24 | 50.13603 | -0.85274 | 35901 ft | 471 kts | 3° |
| 2026-05-07 14:25 | 50.16870 | -0.84812 | 35196 ft | 472 kts | 3° |
| 2026-05-07 14:25 | 50.20139 | -0.84349 | 34493 ft | 472 kts | 3° |
| 2026-05-07 14:25 | 50.23412 | -0.83883 | 33693 ft | 472 kts | 3° |
| 2026-05-07 14:25 | 50.26684 | -0.83417 | 32861 ft | 472 kts | 3° |
| 2026-05-07 14:26 | 50.29957 | -0.82950 | 32085 ft | 471 kts | 3° |
| 2026-05-07 14:26 | 50.33223 | -0.82483 | 31276 ft | 471 kts | 3° |
| 2026-05-07 14:26 | 50.36487 | -0.82010 | 30472 ft | 471 kts | 3° |
| 2026-05-07 14:26 | 50.39754 | -0.81531 | 29529 ft | 472 kts | 3° |
| 2026-05-07 14:27 | 50.43026 | -0.81051 | 28552 ft | 472 kts | 3° |
| 2026-05-07 14:27 | 50.46287 | -0.80571 | 27574 ft | 471 kts | 3° |
| 2026-05-07 14:27 | 50.49556 | -0.80090 | 26566 ft | 472 kts | 4° |
| 2026-05-07 14:27 | 50.52823 | -0.79610 | 25700 ft | 470 kts | 4° |
| 2026-05-07 14:28 | 50.56056 | -0.79133 | 24984 ft | 464 kts | 4° |
| 2026-05-07 14:28 | 50.59252 | -0.78661 | 24259 ft | 459 kts | 4° |
| 2026-05-07 14:28 | 50.62421 | -0.78194 | 23524 ft | 455 kts | 4° |
| 2026-05-07 14:28 | 50.65564 | -0.77738 | 22697 ft | 451 kts | 4° |
| 2026-05-07 14:29 | 50.68668 | -0.77293 | 21957 ft | 445 kts | 4° |
| 2026-05-07 14:29 | 50.71688 | -0.76860 | 21236 ft | 440 kts | 4° |
| 2026-05-07 14:29 | 50.74725 | -0.76423 | 20518 ft | 436 kts | 4° |
| 2026-05-07 14:29 | 50.77728 | -0.75989 | 19819 ft | 431 kts | 4° |
| 2026-05-07 14:30 | 50.80692 | -0.75402 | 19123 ft | 429 kts | 10° |
| 2026-05-07 14:30 | 50.83506 | -0.74116 | 18984 ft | 414 kts | 20° |
| 2026-05-07 14:30 | 50.86160 | -0.72414 | 18853 ft | 415 kts | 21° |
| 2026-05-07 14:30 | 50.88888 | -0.70609 | 18743 ft | 434 kts | 21° |
| 2026-05-07 14:31 | 50.91689 | -0.68752 | 18609 ft | 439 kts | 21° |
| 2026-05-07 14:31 | 50.94495 | -0.66904 | 18457 ft | 435 kts | 21° |
| 2026-05-07 14:31 | 50.97290 | -0.65076 | 18323 ft | 434 kts | 21° |
| 2026-05-07 14:31 | 51.00037 | -0.63290 | 18181 ft | 434 kts | 21° |
| 2026-05-07 14:32 | 51.02829 | -0.61479 | 18034 ft | 432 kts | 21° |
| 2026-05-07 14:32 | 51.05611 | -0.59675 | 17799 ft | 432 kts | 21° |
| 2026-05-07 14:32 | 51.08388 | -0.57872 | 17324 ft | 429 kts | 21° |
| 2026-05-07 14:32 | 51.11137 | -0.56084 | 16807 ft | 425 kts | 21° |
| 2026-05-07 14:33 | 51.13861 | -0.54310 | 16240 ft | 421 kts | 22° |
| 2026-05-07 14:33 | 51.16554 | -0.52554 | 15656 ft | 417 kts | 22° |
| 2026-05-07 14:33 | 51.19193 | -0.50831 | 15086 ft | 413 kts | 22° |
| 2026-05-07 14:33 | 51.21839 | -0.49100 | 14526 ft | 409 kts | 22° |
| 2026-05-07 14:34 | 51.24464 | -0.47382 | 13976 ft | 405 kts | 22° |
| 2026-05-07 14:34 | 51.27060 | -0.45680 | 13367 ft | 402 kts | 22° |
| 2026-05-07 14:34 | 51.29640 | -0.43988 | 12762 ft | 399 kts | 22° |
| 2026-05-07 14:34 | 51.32199 | -0.42304 | 12180 ft | 396 kts | 22° |
| 2026-05-07 14:35 | 51.34734 | -0.40636 | 11632 ft | 392 kts | 22° |
| 2026-05-07 14:35 | 51.37242 | -0.38984 | 11111 ft | 388 kts | 22° |
| 2026-05-07 14:35 | 51.39732 | -0.37342 | 10585 ft | 386 kts | 22° |
| 2026-05-07 14:35 | 51.42201 | -0.35714 | 10081 ft | 383 kts | 22° |
| 2026-05-07 14:36 | 51.44647 | -0.34048 | 9527 ft | 380 kts | 25° |
| 2026-05-07 14:36 | 51.47030 | -0.32263 | 8998 ft | 373 kts | 26° |
| 2026-05-07 14:36 | 51.49303 | -0.30501 | 8619 ft | 354 kts | 26° |
| 2026-05-07 14:36 | 51.51461 | -0.28819 | 8271 ft | 337 kts | 26° |
| 2026-05-07 14:37 | 51.53523 | -0.27218 | 7917 ft | 321 kts | 26° |
| 2026-05-07 14:37 | 51.57391 | -0.24223 | 7137 ft | 298 kts | 26° |
| 2026-05-07 14:37 | 51.59260 | -0.22785 | 6779 ft | 289 kts | 22° |
| 2026-05-07 14:38 | 51.61160 | -0.22181 | 6378 ft | 282 kts | 356° |
| 2026-05-07 14:38 | 51.63004 | -0.23000 | 5996 ft | 272 kts | 328° |
| 2026-05-07 14:38 | 51.64332 | -0.25020 | 5723 ft | 258 kts | 300° |
| 2026-05-07 14:38 | 51.65105 | -0.27557 | 5474 ft | 248 kts | 292° |
| 2026-05-07 14:39 | 51.65766 | -0.30092 | 5197 ft | 243 kts | 291° |
| 2026-05-07 14:39 | 51.66401 | -0.32580 | 4991 ft | 240 kts | 291° |
| 2026-05-07 14:39 | 51.67041 | -0.35108 | 4729 ft | 246 kts | 291° |
| 2026-05-07 14:39 | 51.67677 | -0.37639 | 4449 ft | 247 kts | 291° |
| 2026-05-07 14:40 | 51.68320 | -0.40203 | 4212 ft | 247 kts | 290° |
| 2026-05-07 14:40 | 51.68958 | -0.42761 | 4107 ft | 245 kts | 290° |
| 2026-05-07 14:40 | 51.69592 | -0.45299 | 4097 ft | 243 kts | 291° |
| 2026-05-07 14:40 | 51.70223 | -0.47839 | 4093 ft | 244 kts | 290° |
| 2026-05-07 14:41 | 51.70854 | -0.50378 | 4069 ft | 244 kts | 290° |
| 2026-05-07 14:41 | 51.71486 | -0.52920 | 3984 ft | 248 kts | 291° |
| 2026-05-07 14:41 | 51.72128 | -0.55504 | 3759 ft | 246 kts | 290° |
| 2026-05-07 14:41 | 51.72756 | -0.58030 | 3523 ft | 238 kts | 291° |
| 2026-05-07 14:42 | 51.73360 | -0.60473 | 3290 ft | 230 kts | 290° |
| 2026-05-07 14:42 | 51.73939 | -0.62830 | 3104 ft | 221 kts | 291° |
| 2026-05-07 14:42 | 51.74483 | -0.65062 | 3059 ft | 205 kts | 291° |
| 2026-05-07 14:42 | 51.74994 | -0.67143 | 3052 ft | 197 kts | 291° |
| 2026-05-07 14:43 | 51.75778 | -0.68907 | 3034 ft | 196 kts | 325° |
| 2026-05-07 14:43 | 51.77057 | -0.69645 | 3058 ft | 201 kts | 349° |
| 2026-05-07 14:43 | 51.78444 | -0.70034 | 3054 ft | 203 kts | 350° |
| 2026-05-07 14:43 | 51.79837 | -0.70357 | 3043 ft | 202 kts | 359° |
| 2026-05-07 14:44 | 51.81108 | -0.69640 | 3040 ft | 194 kts | 46° |
| 2026-05-07 14:44 | 51.81791 | -0.67797 | 3063 ft | 192 kts | 66° |
| 2026-05-07 14:44 | 51.82317 | -0.65819 | 3052 ft | 191 kts | 68° |
| 2026-05-07 14:44 | 51.82794 | -0.63825 | 3047 ft | 189 kts | 72° |
| 2026-05-07 14:45 | 51.83186 | -0.61799 | 3049 ft | 189 kts | 75° |
| 2026-05-07 14:45 | 51.83540 | -0.59757 | 3034 ft | 188 kts | 76° |
| 2026-05-07 14:45 | 51.83879 | -0.57765 | 2981 ft | 180 kts | 76° |
| 2026-05-07 14:45 | 51.84201 | -0.55873 | 2797 ft | 170 kts | 76° |
| 2026-05-07 14:46 | 51.84504 | -0.54101 | 2578 ft | 156 kts | 76° |
| 2026-05-07 14:46 | 51.84778 | -0.52500 | 2390 ft | 142 kts | 76° |
| 2026-05-07 14:46 | 51.85034 | -0.50989 | 2171 ft | 138 kts | 77° |
| 2026-05-07 14:46 | 51.85287 | -0.49505 | 1995 ft | 138 kts | 76° |
| 2026-05-07 14:47 | 51.85548 | -0.47997 | 1826 ft | 140 kts | 76° |
| 2026-05-07 14:47 | 51.85805 | -0.46490 | 1613 ft | 137 kts | 76° |
| 2026-05-07 14:47 | 51.86060 | -0.45011 | 1431 ft | 135 kts | 76° |
| 2026-05-07 14:47 | 51.86311 | -0.43535 | 1230 ft | 135 kts | 76° |
| 2026-05-07 14:48 | 51.86555 | -0.42108 | 1038 ft | 129 kts | 76° |
| 2026-05-07 14:48 | 51.86794 | -0.40714 | 887 ft | 129 kts | 76° |
| 2026-05-07 14:48 | 51.87044 | -0.39305 | 685 ft | 128 kts | 77° |
| 2026-05-07 14:48 | 51.87280 | -0.37924 | 529 ft | 124 kts | 76° |
| 2026-05-07 14:49 | 51.87480 | -0.36747 | 524 ft | 89 kts | 74° |
| 2026-05-07 14:49 | 51.87606 | -0.36015 | 515 ft | 46 kts | 74° |
| 2026-05-07 14:49 | 51.87669 | -0.35653 | 512 ft | 30 kts | 75° |
| 2026-05-07 14:49 | 51.87696 | -0.35459 | 516 ft | 7 kts | 98° |
| 2026-05-07 14:50 | 51.87692 | -0.35431 | 517 ft | 4 kts | 100° |
| 2026-05-07 14:50 | 51.87691 | -0.35392 | 517 ft | 8 kts | 81° |
| 2026-05-07 14:50 | 51.87722 | -0.35408 | 516 ft | 8 kts | 250° |
| 2026-05-07 14:50 | 51.87695 | -0.35499 | 515 ft | 13 kts | 254° |
| 2026-05-07 14:51 | 51.87664 | -0.35680 | 512 ft | 19 kts | 255° |
| 2026-05-07 14:51 | 51.87640 | -0.35860 | 515 ft | 13 kts | 280° |
| 2026-05-07 14:51 | 51.87707 | -0.35935 | 515 ft | 12 kts | 346° |
| 2026-05-07 14:51 | 51.87774 | -0.36009 | 516 ft | 12 kts | 303° |
| 2026-05-07 14:52 | 51.87773 | -0.36139 | 518 ft | 12 kts | 254° |
| 2026-05-07 14:52 | 51.87751 | -0.36264 | 517 ft | 11 kts | 254° |
| 2026-05-07 14:52 | 51.87730 | -0.36386 | 517 ft | 11 kts | 254° |
| 2026-05-07 14:52 | 51.87708 | -0.36511 | 519 ft | 12 kts | 255° |
| 2026-05-07 14:53 | 51.87687 | -0.36638 | 520 ft | 12 kts | 255° |
| 2026-05-07 14:53 | 51.87665 | -0.36761 | 522 ft | 11 kts | 254° |
| 2026-05-07 14:53 | 51.87663 | -0.36775 | 523 ft | 0 kts | 254° |
| 2026-05-07 14:54 | 51.87662 | -0.36781 | 523 ft | 3 kts | 254° |
| 2026-05-07 14:54 | 51.87654 | -0.36822 | 524 ft | 0 kts | 254° |
| 2026-05-07 14:55 | 51.87652 | -0.36838 | 524 ft | 6 kts | 254° |
| 2026-05-07 14:55 | 51.87668 | -0.36944 | 523 ft | 13 kts | 329° |
| 2026-05-07 14:55 | 51.87762 | -0.36997 | 516 ft | 13 kts | 342° |
| 2026-05-07 14:55 | 51.87859 | -0.37048 | 510 ft | 17 kts | 342° |
| 2026-05-07 14:56 | 51.87969 | -0.37106 | 508 ft | 16 kts | 342° |
| 2026-05-07 14:56 | 51.88038 | -0.37175 | 507 ft | 9 kts | 283° |
| 2026-05-07 14:56 | 51.88029 | -0.37273 | 507 ft | 9 kts | 252° |
| 2026-05-07 14:56 | 51.88010 | -0.37365 | 507 ft | 8 kts | 252° |
| 2026-05-07 14:57 | 51.87992 | -0.37396 | 507 ft | 1 kts | 193° |
| 2026-05-07 14:57 | 51.87950 | -0.37385 | 507 ft | 7 kts | 163° |
| 2026-05-07 14:57 | 51.87944 | -0.37382 | 507 ft | 0 kts | 161° |